sensor_id;sensor_type;location;lat;lon;timestamp;temperature;humidity
5683;DHT22;2864;49.220;8.654;2023-07-31T00:01:40;16.10;99.90
5683;DHT22;2864;49.220;8.654;2023-07-31T00:04:05;16.20;99.90
5683;DHT22;2864;49.220;8.654;2023-07-31T00:06:31;19.10;99.90
5683;DHT22;2864;49.220;8.654;2023-07-31T00:08:56;18.30;99.90
5683;DHT22;2864;49.220;8.654;2023-07-31T00:21:44;16.70;99.50
5683;DHT22;2864;49.220;8.654;2023-07-31T00:24:10;16.70;99.30
5683;DHT22;2864;49.220;8.654;2023-07-31T00:26:35;16.80;99.10
5683;DHT22;2864;49.220;8.654;2023-07-31T00:29:01;16.80;99.00
5683;DHT22;2864;49.220;8.654;2023-07-31T00:31:26;16.80;99.00
5683;DHT22;2864;49.220;8.654;2023-07-31T00:33:52;16.90;99.10
5683;DHT22;2864;49.220;8.654;2023-07-31T00:36:17;16.80;99.00
5683;DHT22;2864;49.220;8.654;2023-07-31T00:38:43;16.80;99.10
5683;DHT22;2864;49.220;8.654;2023-07-31T00:41:09;16.80;99.00
5683;DHT22;2864;49.220;8.654;2023-07-31T00:43:34;16.80;99.20
5683;DHT22;2864;49.220;8.654;2023-07-31T00:46:00;16.90;99.00
5683;DHT22;2864;49.220;8.654;2023-07-31T00:48:25;16.90;99.00
5683;DHT22;2864;49.220;8.654;2023-07-31T00:50:51;16.90;99.00
5683;DHT22;2864;49.220;8.654;2023-07-31T00:53:17;16.90;99.10
5683;DHT22;2864;49.220;8.654;2023-07-31T00:55:43;17.10;99.20
5683;DHT22;2864;49.220;8.654;2023-07-31T00:58:09;17.00;99.10
5683;DHT22;2864;49.220;8.654;2023-07-31T01:00:35;16.90;99.00
5683;DHT22;2864;49.220;8.654;2023-07-31T01:03:00;16.90;99.10
5683;DHT22;2864;49.220;8.654;2023-07-31T01:08:20;16.80;99.00
5683;DHT22;2864;49.220;8.654;2023-07-31T01:10:54;16.90;99.20
5683;DHT22;2864;49.220;8.654;2023-07-31T01:13:21;17.10;99.20
5683;DHT22;2864;49.220;8.654;2023-07-31T01:15:47;16.90;99.10
5683;DHT22;2864;49.220;8.654;2023-07-31T01:18:12;17.00;99.30
5683;DHT22;2864;49.220;8.654;2023-07-31T01:20:42;16.90;99.30
5683;DHT22;2864;49.220;8.654;2023-07-31T01:23:35;16.90;99.30
5683;DHT22;2864;49.220;8.654;2023-07-31T01:26:12;16.90;99.30
5683;DHT22;2864;49.220;8.654;2023-07-31T01:29:10;16.90;99.30
5683;DHT22;2864;49.220;8.654;2023-07-31T01:31:38;16.90;99.20
5683;DHT22;2864;49.220;8.654;2023-07-31T01:34:06;16.90;99.10
5683;DHT22;2864;49.220;8.654;2023-07-31T01:36:34;17.00;99.20
5683;DHT22;2864;49.220;8.654;2023-07-31T01:39:00;17.00;99.10
5683;DHT22;2864;49.220;8.654;2023-07-31T01:41:27;17.00;99.10
5683;DHT22;2864;49.220;8.654;2023-07-31T01:43:52;16.90;99.40
5683;DHT22;2864;49.220;8.654;2023-07-31T01:46:18;16.90;99.30
5683;DHT22;2864;49.220;8.654;2023-07-31T01:48:43;16.80;99.00
5683;DHT22;2864;49.220;8.654;2023-07-31T01:51:09;16.80;99.10
5683;DHT22;2864;49.220;8.654;2023-07-31T01:53:34;16.80;99.00
5683;DHT22;2864;49.220;8.654;2023-07-31T01:56:00;17.90;99.50
5683;DHT22;2864;49.220;8.654;2023-07-31T01:58:25;18.00;99.60
5683;DHT22;2864;49.220;8.654;2023-07-31T02:00:51;16.80;99.00
5683;DHT22;2864;49.220;8.654;2023-07-31T02:03:16;17.60;99.40
5683;DHT22;2864;49.220;8.654;2023-07-31T02:05:46;16.70;99.10
5683;DHT22;2864;49.220;8.654;2023-07-31T02:08:13;16.70;99.00
5683;DHT22;2864;49.220;8.654;2023-07-31T02:10:38;16.80;98.70
5683;DHT22;2864;49.220;8.654;2023-07-31T02:13:04;17.60;99.00
5683;DHT22;2864;49.220;8.654;2023-07-31T02:15:30;16.80;98.60
5683;DHT22;2864;49.220;8.654;2023-07-31T02:17:55;16.80;98.40
5683;DHT22;2864;49.220;8.654;2023-07-31T02:20:21;16.80;98.40
5683;DHT22;2864;49.220;8.654;2023-07-31T02:22:47;16.80;98.50
5683;DHT22;2864;49.220;8.654;2023-07-31T02:25:12;16.90;98.40
5683;DHT22;2864;49.220;8.654;2023-07-31T02:27:38;16.90;98.10
5683;DHT22;2864;49.220;8.654;2023-07-31T02:30:03;16.90;98.20
5683;DHT22;2864;49.220;8.654;2023-07-31T02:32:29;16.80;98.10
5683;DHT22;2864;49.220;8.654;2023-07-31T02:34:55;16.80;98.20
5683;DHT22;2864;49.220;8.654;2023-07-31T02:37:20;16.70;98.30
5683;DHT22;2864;49.220;8.654;2023-07-31T02:39:46;16.70;98.10
5683;DHT22;2864;49.220;8.654;2023-07-31T02:42:12;18.10;98.80
5683;DHT22;2864;49.220;8.654;2023-07-31T02:44:38;16.80;97.90
5683;DHT22;2864;49.220;8.654;2023-07-31T02:47:03;16.80;97.70
5683;DHT22;2864;49.220;8.654;2023-07-31T02:49:29;16.80;97.60
5683;DHT22;2864;49.220;8.654;2023-07-31T02:51:54;17.00;97.70
5683;DHT22;2864;49.220;8.654;2023-07-31T02:54:20;16.80;97.60
5683;DHT22;2864;49.220;8.654;2023-07-31T02:56:47;16.80;97.50
5683;DHT22;2864;49.220;8.654;2023-07-31T02:59:12;16.80;97.30
5683;DHT22;2864;49.220;8.654;2023-07-31T03:01:38;16.80;97.30
5683;DHT22;2864;49.220;8.654;2023-07-31T03:04:04;16.80;97.40
5683;DHT22;2864;49.220;8.654;2023-07-31T03:06:29;16.70;97.40
5683;DHT22;2864;49.220;8.654;2023-07-31T03:08:55;16.90;97.50
5683;DHT22;2864;49.220;8.654;2023-07-31T03:11:20;16.70;97.50
5683;DHT22;2864;49.220;8.654;2023-07-31T03:13:46;16.70;97.40
5683;DHT22;2864;49.220;8.654;2023-07-31T03:16:11;16.60;97.50
5683;DHT22;2864;49.220;8.654;2023-07-31T03:18:37;16.50;97.50
5683;DHT22;2864;49.220;8.654;2023-07-31T03:21:03;16.40;97.60
5683;DHT22;2864;49.220;8.654;2023-07-31T03:23:29;16.30;97.60
5683;DHT22;2864;49.220;8.654;2023-07-31T03:26:00;16.20;97.70
5683;DHT22;2864;49.220;8.654;2023-07-31T03:28:26;16.20;97.90
5683;DHT22;2864;49.220;8.654;2023-07-31T03:30:52;16.10;97.90
5683;DHT22;2864;49.220;8.654;2023-07-31T03:33:18;16.20;98.00
5683;DHT22;2864;49.220;8.654;2023-07-31T03:35:43;16.10;97.90
5683;DHT22;2864;49.220;8.654;2023-07-31T03:38:09;16.10;98.00
5683;DHT22;2864;49.220;8.654;2023-07-31T03:40:34;16.00;98.10
5683;DHT22;2864;49.220;8.654;2023-07-31T03:43:00;16.00;98.30
5683;DHT22;2864;49.220;8.654;2023-07-31T03:45:25;16.10;98.40
5683;DHT22;2864;49.220;8.654;2023-07-31T03:47:51;16.10;98.30
5683;DHT22;2864;49.220;8.654;2023-07-31T03:50:17;16.10;98.20
5683;DHT22;2864;49.220;8.654;2023-07-31T03:52:42;16.20;98.40
5683;DHT22;2864;49.220;8.654;2023-07-31T03:55:08;17.40;98.90
5683;DHT22;2864;49.220;8.654;2023-07-31T03:57:33;16.00;98.30
5683;DHT22;2864;49.220;8.654;2023-07-31T03:59:59;16.00;98.50
5683;DHT22;2864;49.220;8.654;2023-07-31T04:02:25;16.10;98.60
5683;DHT22;2864;49.220;8.654;2023-07-31T04:04:50;16.00;98.50
5683;DHT22;2864;49.220;8.654;2023-07-31T04:07:16;16.30;98.50
5683;DHT22;2864;49.220;8.654;2023-07-31T04:09:41;16.10;98.30
5683;DHT22;2864;49.220;8.654;2023-07-31T04:12:07;16.10;98.20
5683;DHT22;2864;49.220;8.654;2023-07-31T04:14:32;16.20;98.10
5683;DHT22;2864;49.220;8.654;2023-07-31T04:16:58;17.80;98.70
5683;DHT22;2864;49.220;8.654;2023-07-31T04:19:24;16.40;97.90
5683;DHT22;2864;49.220;8.654;2023-07-31T04:21:50;16.40;97.70
5683;DHT22;2864;49.220;8.654;2023-07-31T04:24:15;16.50;97.80
5683;DHT22;2864;49.220;8.654;2023-07-31T04:26:41;18.10;98.50
5683;DHT22;2864;49.220;8.654;2023-07-31T04:29:06;16.60;97.40
5683;DHT22;2864;49.220;8.654;2023-07-31T04:31:33;16.70;97.30
5683;DHT22;2864;49.220;8.654;2023-07-31T04:33:59;16.80;97.40
5683;DHT22;2864;49.220;8.654;2023-07-31T04:36:24;16.70;97.50
5683;DHT22;2864;49.220;8.654;2023-07-31T04:38:50;16.80;98.00
5683;DHT22;2864;49.220;8.654;2023-07-31T04:41:15;17.60;98.30
5683;DHT22;2864;49.220;8.654;2023-07-31T04:43:41;16.90;97.50
5683;DHT22;2864;49.220;8.654;2023-07-31T04:46:06;16.90;97.60
5683;DHT22;2864;49.220;8.654;2023-07-31T04:48:32;16.90;97.60
5683;DHT22;2864;49.220;8.654;2023-07-31T04:50:57;17.00;97.40
5683;DHT22;2864;49.220;8.654;2023-07-31T04:53:23;17.50;97.70
5683;DHT22;2864;49.220;8.654;2023-07-31T04:55:49;17.00;97.10
5683;DHT22;2864;49.220;8.654;2023-07-31T04:58:14;17.10;96.90
5683;DHT22;2864;49.220;8.654;2023-07-31T05:00:40;17.10;96.90
5683;DHT22;2864;49.220;8.654;2023-07-31T05:03:05;18.40;97.50
5683;DHT22;2864;49.220;8.654;2023-07-31T05:05:32;17.20;96.60
5683;DHT22;2864;49.220;8.654;2023-07-31T05:07:58;17.20;96.60
5683;DHT22;2864;49.220;8.654;2023-07-31T05:10:23;17.20;96.70
5683;DHT22;2864;49.220;8.654;2023-07-31T05:12:49;17.20;96.50
5683;DHT22;2864;49.220;8.654;2023-07-31T05:15:14;17.10;96.50
5683;DHT22;2864;49.220;8.654;2023-07-31T05:17:40;17.20;96.50
5683;DHT22;2864;49.220;8.654;2023-07-31T05:20:06;17.30;96.70
5683;DHT22;2864;49.220;8.654;2023-07-31T05:22:32;17.30;96.40
5683;DHT22;2864;49.220;8.654;2023-07-31T05:24:57;17.40;96.20
5683;DHT22;2864;49.220;8.654;2023-07-31T05:27:23;19.50;97.30
5683;DHT22;2864;49.220;8.654;2023-07-31T05:29:48;17.50;96.10
5683;DHT22;2864;49.220;8.654;2023-07-31T05:32:14;17.50;96.20
5683;DHT22;2864;49.220;8.654;2023-07-31T05:34:39;17.50;96.20
5683;DHT22;2864;49.220;8.654;2023-07-31T05:37:05;17.60;96.30
5683;DHT22;2864;49.220;8.654;2023-07-31T05:39:31;17.60;96.10
5683;DHT22;2864;49.220;8.654;2023-07-31T05:41:56;17.60;96.30
5683;DHT22;2864;49.220;8.654;2023-07-31T05:44:22;17.80;95.90
5683;DHT22;2864;49.220;8.654;2023-07-31T05:46:47;17.80;95.70
5683;DHT22;2864;49.220;8.654;2023-07-31T05:49:13;17.80;95.70
5683;DHT22;2864;49.220;8.654;2023-07-31T05:51:38;17.90;95.60
5683;DHT22;2864;49.220;8.654;2023-07-31T05:54:04;17.90;95.60
5683;DHT22;2864;49.220;8.654;2023-07-31T05:56:30;18.20;95.80
5683;DHT22;2864;49.220;8.654;2023-07-31T05:58:56;18.00;95.50
5683;DHT22;2864;49.220;8.654;2023-07-31T06:01:22;17.90;95.40
5683;DHT22;2864;49.220;8.654;2023-07-31T06:03:48;17.90;95.40
5683;DHT22;2864;49.220;8.654;2023-07-31T06:06:13;18.00;95.30
5683;DHT22;2864;49.220;8.654;2023-07-31T06:08:39;18.00;95.40
5683;DHT22;2864;49.220;8.654;2023-07-31T06:11:05;18.00;95.30
5683;DHT22;2864;49.220;8.654;2023-07-31T06:13:31;19.80;96.10
5683;DHT22;2864;49.220;8.654;2023-07-31T06:15:56;18.20;95.00
5683;DHT22;2864;49.220;8.654;2023-07-31T06:18:22;18.10;95.20
5683;DHT22;2864;49.220;8.654;2023-07-31T06:20:47;18.10;95.10
5683;DHT22;2864;49.220;8.654;2023-07-31T06:23:19;18.20;95.30
5683;DHT22;2864;49.220;8.654;2023-07-31T06:25:44;20.00;96.10
5683;DHT22;2864;49.220;8.654;2023-07-31T06:28:10;18.40;94.90
5683;DHT22;2864;49.220;8.654;2023-07-31T06:30:35;19.00;95.20
5683;DHT22;2864;49.220;8.654;2023-07-31T06:33:01;18.50;94.50
5683;DHT22;2864;49.220;8.654;2023-07-31T06:35:26;18.70;94.40
5683;DHT22;2864;49.220;8.654;2023-07-31T06:37:52;18.70;94.60
5683;DHT22;2864;49.220;8.654;2023-07-31T06:40:17;20.00;95.10
5683;DHT22;2864;49.220;8.654;2023-07-31T06:42:44;18.80;94.40
5683;DHT22;2864;49.220;8.654;2023-07-31T06:45:10;18.80;94.60
5683;DHT22;2864;49.220;8.654;2023-07-31T06:47:36;18.80;94.10
5683;DHT22;2864;49.220;8.654;2023-07-31T06:50:02;18.70;94.20
5683;DHT22;2864;49.220;8.654;2023-07-31T06:52:27;18.90;94.40
5683;DHT22;2864;49.220;8.654;2023-07-31T06:55:19;18.90;94.10
5683;DHT22;2864;49.220;8.654;2023-07-31T06:57:45;18.90;94.30
5683;DHT22;2864;49.220;8.654;2023-07-31T07:00:11;19.00;94.20
5683;DHT22;2864;49.220;8.654;2023-07-31T07:02:37;19.00;94.10
5683;DHT22;2864;49.220;8.654;2023-07-31T07:05:03;19.00;94.10
5683;DHT22;2864;49.220;8.654;2023-07-31T07:07:28;18.90;94.10
5683;DHT22;2864;49.220;8.654;2023-07-31T07:09:54;19.00;93.90
5683;DHT22;2864;49.220;8.654;2023-07-31T07:12:21;19.10;93.80
5683;DHT22;2864;49.220;8.654;2023-07-31T07:14:46;19.10;93.70
5683;DHT22;2864;49.220;8.654;2023-07-31T07:17:13;19.20;93.80
5683;DHT22;2864;49.220;8.654;2023-07-31T07:19:40;19.30;93.80
5683;DHT22;2864;49.220;8.654;2023-07-31T07:22:06;19.60;93.70
5683;DHT22;2864;49.220;8.654;2023-07-31T07:24:32;20.70;94.10
5683;DHT22;2864;49.220;8.654;2023-07-31T07:26:57;20.00;93.50
5683;DHT22;2864;49.220;8.654;2023-07-31T07:29:23;20.00;93.10
5683;DHT22;2864;49.220;8.654;2023-07-31T07:31:49;20.20;92.90
5683;DHT22;2864;49.220;8.654;2023-07-31T07:34:14;20.20;92.50
5683;DHT22;2864;49.220;8.654;2023-07-31T07:36:40;20.20;92.30
5683;DHT22;2864;49.220;8.654;2023-07-31T07:39:05;20.20;92.30
5683;DHT22;2864;49.220;8.654;2023-07-31T07:41:31;20.10;91.90
5683;DHT22;2864;49.220;8.654;2023-07-31T07:43:56;19.90;91.90
5683;DHT22;2864;49.220;8.654;2023-07-31T07:46:22;19.90;92.30
5683;DHT22;2864;49.220;8.654;2023-07-31T07:48:48;20.10;92.40
5683;DHT22;2864;49.220;8.654;2023-07-31T07:51:14;20.00;91.70
5683;DHT22;2864;49.220;8.654;2023-07-31T07:53:39;20.20;91.90
5683;DHT22;2864;49.220;8.654;2023-07-31T07:56:05;20.40;92.00
5683;DHT22;2864;49.220;8.654;2023-07-31T07:58:30;20.40;91.90
5683;DHT22;2864;49.220;8.654;2023-07-31T08:00:56;20.50;91.20
5683;DHT22;2864;49.220;8.654;2023-07-31T08:03:21;20.40;91.50
5683;DHT22;2864;49.220;8.654;2023-07-31T08:05:47;20.70;91.50
5683;DHT22;2864;49.220;8.654;2023-07-31T08:08:15;21.80;91.90
5683;DHT22;2864;49.220;8.654;2023-07-31T08:10:44;20.40;91.40
5683;DHT22;2864;49.220;8.654;2023-07-31T08:13:11;20.40;91.20
5683;DHT22;2864;49.220;8.654;2023-07-31T08:15:37;20.60;91.60
5683;DHT22;2864;49.220;8.654;2023-07-31T08:18:03;21.10;91.40
5683;DHT22;2864;49.220;8.654;2023-07-31T08:20:28;21.20;91.00
5683;DHT22;2864;49.220;8.654;2023-07-31T08:22:54;21.30;91.10
5683;DHT22;2864;49.220;8.654;2023-07-31T08:25:19;21.10;90.50
5683;DHT22;2864;49.220;8.654;2023-07-31T08:27:45;20.80;90.10
5683;DHT22;2864;49.220;8.654;2023-07-31T08:30:12;20.80;90.70
5683;DHT22;2864;49.220;8.654;2023-07-31T08:32:37;21.00;90.40
5683;DHT22;2864;49.220;8.654;2023-07-31T08:35:03;20.90;90.50
5683;DHT22;2864;49.220;8.654;2023-07-31T08:37:29;21.10;90.40
5683;DHT22;2864;49.220;8.654;2023-07-31T08:39:55;20.90;90.30
5683;DHT22;2864;49.220;8.654;2023-07-31T08:42:20;21.60;90.80
5683;DHT22;2864;49.220;8.654;2023-07-31T08:44:46;20.90;90.00
5683;DHT22;2864;49.220;8.654;2023-07-31T08:47:13;21.00;90.20
5683;DHT22;2864;49.220;8.654;2023-07-31T08:49:39;21.90;90.50
5683;DHT22;2864;49.220;8.654;2023-07-31T08:52:06;21.90;89.70
5683;DHT22;2864;49.220;8.654;2023-07-31T08:54:32;21.70;88.30
5683;DHT22;2864;49.220;8.654;2023-07-31T08:56:59;22.00;88.30
5683;DHT22;2864;49.220;8.654;2023-07-31T08:59:28;22.00;87.20
5683;DHT22;2864;49.220;8.654;2023-07-31T09:01:55;22.00;87.70
5683;DHT22;2864;49.220;8.654;2023-07-31T09:04:23;21.90;87.30
5683;DHT22;2864;49.220;8.654;2023-07-31T09:06:49;21.90;87.50
5683;DHT22;2864;49.220;8.654;2023-07-31T09:09:15;21.80;86.80
5683;DHT22;2864;49.220;8.654;2023-07-31T09:11:41;21.90;87.00
5683;DHT22;2864;49.220;8.654;2023-07-31T09:14:08;22.30;86.60
5683;DHT22;2864;49.220;8.654;2023-07-31T09:16:34;22.20;86.70
5683;DHT22;2864;49.220;8.654;2023-07-31T09:19:00;22.10;86.20
5683;DHT22;2864;49.220;8.654;2023-07-31T09:21:30;22.30;87.00
5683;DHT22;2864;49.220;8.654;2023-07-31T09:23:57;22.50;85.70
5683;DHT22;2864;49.220;8.654;2023-07-31T09:26:36;22.70;85.70
5683;DHT22;2864;49.220;8.654;2023-07-31T09:29:06;22.10;85.00
5683;DHT22;2864;49.220;8.654;2023-07-31T09:31:40;22.10;85.90
5683;DHT22;2864;49.220;8.654;2023-07-31T09:34:06;22.70;85.70
5683;DHT22;2864;49.220;8.654;2023-07-31T09:36:32;22.60;85.40
5683;DHT22;2864;49.220;8.654;2023-07-31T09:39:04;22.60;84.90
5683;DHT22;2864;49.220;8.654;2023-07-31T09:41:30;22.50;85.00
5683;DHT22;2864;49.220;8.654;2023-07-31T09:43:56;22.20;84.70
5683;DHT22;2864;49.220;8.654;2023-07-31T09:46:22;24.40;87.10
5683;DHT22;2864;49.220;8.654;2023-07-31T09:48:48;22.60;85.40
5683;DHT22;2864;49.220;8.654;2023-07-31T09:51:13;22.90;85.00
5683;DHT22;2864;49.220;8.654;2023-07-31T09:53:39;22.90;85.00
5683;DHT22;2864;49.220;8.654;2023-07-31T09:56:05;23.10;84.20
5683;DHT22;2864;49.220;8.654;2023-07-31T09:58:33;23.20;82.80
5683;DHT22;2864;49.220;8.654;2023-07-31T10:01:00;24.00;84.40
5683;DHT22;2864;49.220;8.654;2023-07-31T10:03:27;23.00;82.80
5683;DHT22;2864;49.220;8.654;2023-07-31T10:05:56;23.20;82.60
5683;DHT22;2864;49.220;8.654;2023-07-31T10:08:27;23.50;82.10
5683;DHT22;2864;49.220;8.654;2023-07-31T10:10:58;23.50;82.70
5683;DHT22;2864;49.220;8.654;2023-07-31T10:13:25;23.30;81.80
5683;DHT22;2864;49.220;8.654;2023-07-31T10:15:53;23.20;82.10
5683;DHT22;2864;49.220;8.654;2023-07-31T10:18:20;22.80;82.50
5683;DHT22;2864;49.220;8.654;2023-07-31T10:20:47;22.60;82.00
5683;DHT22;2864;49.220;8.654;2023-07-31T10:23:13;22.70;82.50
5683;DHT22;2864;49.220;8.654;2023-07-31T10:25:39;22.80;82.30
5683;DHT22;2864;49.220;8.654;2023-07-31T10:28:05;22.80;82.60
5683;DHT22;2864;49.220;8.654;2023-07-31T10:30:33;23.00;82.00
5683;DHT22;2864;49.220;8.654;2023-07-31T10:33:00;23.30;82.40
5683;DHT22;2864;49.220;8.654;2023-07-31T10:35:27;23.00;82.50
5683;DHT22;2864;49.220;8.654;2023-07-31T10:37:52;22.80;81.80
5683;DHT22;2864;49.220;8.654;2023-07-31T10:40:23;23.20;82.70
5683;DHT22;2864;49.220;8.654;2023-07-31T10:42:56;23.30;83.10
5683;DHT22;2864;49.220;8.654;2023-07-31T10:45:32;23.10;82.20
5683;DHT22;2864;49.220;8.654;2023-07-31T10:48:05;23.20;81.80
5683;DHT22;2864;49.220;8.654;2023-07-31T10:50:36;22.70;82.10
5683;DHT22;2864;49.220;8.654;2023-07-31T10:53:02;23.00;81.80
5683;DHT22;2864;49.220;8.654;2023-07-31T10:55:47;22.80;81.80
5683;DHT22;2864;49.220;8.654;2023-07-31T10:58:15;23.00;81.30
5683;DHT22;2864;49.220;8.654;2023-07-31T11:00:44;23.30;81.40
5683;DHT22;2864;49.220;8.654;2023-07-31T11:03:15;23.50;81.30
5683;DHT22;2864;49.220;8.654;2023-07-31T11:05:45;23.20;81.20
5683;DHT22;2864;49.220;8.654;2023-07-31T11:08:16;25.00;83.80
5683;DHT22;2864;49.220;8.654;2023-07-31T11:10:43;22.80;81.00
5683;DHT22;2864;49.220;8.654;2023-07-31T11:13:09;23.40;81.30
5683;DHT22;2864;49.220;8.654;2023-07-31T11:15:35;22.90;81.30
5683;DHT22;2864;49.220;8.654;2023-07-31T11:18:01;23.30;81.30
5683;DHT22;2864;49.220;8.654;2023-07-31T11:20:36;23.60;81.20
5683;DHT22;2864;49.220;8.654;2023-07-31T11:23:05;23.70;81.20
5683;DHT22;2864;49.220;8.654;2023-07-31T11:25:32;23.60;80.70
5683;DHT22;2864;49.220;8.654;2023-07-31T11:28:09;23.70;81.60
5683;DHT22;2864;49.220;8.654;2023-07-31T11:30:35;24.00;80.30
5683;DHT22;2864;49.220;8.654;2023-07-31T11:33:03;24.10;80.70
5683;DHT22;2864;49.220;8.654;2023-07-31T11:35:30;23.40;80.60
5683;DHT22;2864;49.220;8.654;2023-07-31T11:37:56;23.00;81.30
5683;DHT22;2864;49.220;8.654;2023-07-31T11:40:22;22.80;81.80
5683;DHT22;2864;49.220;8.654;2023-07-31T11:42:47;23.10;82.40
5683;DHT22;2864;49.220;8.654;2023-07-31T11:45:13;23.60;81.30
5683;DHT22;2864;49.220;8.654;2023-07-31T11:47:38;23.90;82.10
5683;DHT22;2864;49.220;8.654;2023-07-31T11:50:05;23.80;82.00
5683;DHT22;2864;49.220;8.654;2023-07-31T11:52:44;23.80;80.70
5683;DHT22;2864;49.220;8.654;2023-07-31T11:55:12;24.40;82.10
5683;DHT22;2864;49.220;8.654;2023-07-31T11:57:41;24.60;82.20
5683;DHT22;2864;49.220;8.654;2023-07-31T12:00:09;23.50;81.60
5683;DHT22;2864;49.220;8.654;2023-07-31T12:02:36;23.60;81.40
5683;DHT22;2864;49.220;8.654;2023-07-31T12:05:03;23.50;81.50
5683;DHT22;2864;49.220;8.654;2023-07-31T12:07:53;23.40;81.20
5683;DHT22;2864;49.220;8.654;2023-07-31T12:10:37;23.60;81.80
5683;DHT22;2864;49.220;8.654;2023-07-31T12:13:25;23.90;81.80
5683;DHT22;2864;49.220;8.654;2023-07-31T12:15:56;23.80;82.20
5683;DHT22;2864;49.220;8.654;2023-07-31T12:18:23;23.50;80.90
5683;DHT22;2864;49.220;8.654;2023-07-31T12:20:58;23.60;81.80
5683;DHT22;2864;49.220;8.654;2023-07-31T12:23:32;23.90;82.40
5683;DHT22;2864;49.220;8.654;2023-07-31T12:28:44;24.10;80.90
5683;DHT22;2864;49.220;8.654;2023-07-31T12:33:41;24.50;81.10
5683;DHT22;2864;49.220;8.654;2023-07-31T12:36:15;24.40;81.00
5683;DHT22;2864;49.220;8.654;2023-07-31T12:38:42;24.40;81.00
5683;DHT22;2864;49.220;8.654;2023-07-31T12:41:08;24.00;80.60
5683;DHT22;2864;49.220;8.654;2023-07-31T12:43:34;24.10;80.90
5683;DHT22;2864;49.220;8.654;2023-07-31T12:46:00;24.40;81.10
5683;DHT22;2864;49.220;8.654;2023-07-31T12:48:25;24.00;80.60
5683;DHT22;2864;49.220;8.654;2023-07-31T12:50:51;24.50;80.80
5683;DHT22;2864;49.220;8.654;2023-07-31T12:53:17;25.70;79.80
5683;DHT22;2864;49.220;8.654;2023-07-31T12:55:42;26.30;77.30
5683;DHT22;2864;49.220;8.654;2023-07-31T12:58:08;26.50;76.60
5683;DHT22;2864;49.220;8.654;2023-07-31T13:00:33;25.80;77.50
5683;DHT22;2864;49.220;8.654;2023-07-31T13:03:00;25.50;78.20
5683;DHT22;2864;49.220;8.654;2023-07-31T13:05:26;26.80;79.70
5683;DHT22;2864;49.220;8.654;2023-07-31T13:07:52;25.80;77.70
5683;DHT22;2864;49.220;8.654;2023-07-31T13:10:18;25.20;78.00
5683;DHT22;2864;49.220;8.654;2023-07-31T13:12:43;25.60;78.70
5683;DHT22;2864;49.220;8.654;2023-07-31T13:15:09;25.60;78.00
5683;DHT22;2864;49.220;8.654;2023-07-31T13:17:36;25.70;77.60
5683;DHT22;2864;49.220;8.654;2023-07-31T13:20:01;25.80;78.10
5683;DHT22;2864;49.220;8.654;2023-07-31T13:22:28;25.70;78.40
5683;DHT22;2864;49.220;8.654;2023-07-31T13:24:54;25.00;78.40
5683;DHT22;2864;49.220;8.654;2023-07-31T13:27:19;25.00;78.40
5683;DHT22;2864;49.220;8.654;2023-07-31T13:29:50;24.60;79.40
5683;DHT22;2864;49.220;8.654;2023-07-31T13:32:16;24.40;79.70
5683;DHT22;2864;49.220;8.654;2023-07-31T13:34:42;24.80;80.80
5683;DHT22;2864;49.220;8.654;2023-07-31T13:37:08;24.70;80.60
5683;DHT22;2864;49.220;8.654;2023-07-31T13:39:34;24.10;79.60
5683;DHT22;2864;49.220;8.654;2023-07-31T13:42:00;24.10;79.80
5683;DHT22;2864;49.220;8.654;2023-07-31T13:44:26;24.00;79.60
5683;DHT22;2864;49.220;8.654;2023-07-31T13:46:52;24.10;79.60
5683;DHT22;2864;49.220;8.654;2023-07-31T13:49:17;24.10;79.10
5683;DHT22;2864;49.220;8.654;2023-07-31T13:51:43;24.20;79.00
5683;DHT22;2864;49.220;8.654;2023-07-31T13:54:09;24.40;79.20
5683;DHT22;2864;49.220;8.654;2023-07-31T13:56:37;24.90;79.30
5683;DHT22;2864;49.220;8.654;2023-07-31T13:59:02;26.20;78.70
5683;DHT22;2864;49.220;8.654;2023-07-31T14:01:28;26.20;77.50
5683;DHT22;2864;49.220;8.654;2023-07-31T14:03:54;26.70;76.70
5683;DHT22;2864;49.220;8.654;2023-07-31T14:06:19;26.10;76.80
5683;DHT22;2864;49.220;8.654;2023-07-31T14:08:45;25.50;77.40
5683;DHT22;2864;49.220;8.654;2023-07-31T14:11:10;25.60;78.30
5683;DHT22;2864;49.220;8.654;2023-07-31T14:13:36;25.10;78.30
5683;DHT22;2864;49.220;8.654;2023-07-31T14:16:02;24.60;79.10
5683;DHT22;2864;49.220;8.654;2023-07-31T14:18:27;24.10;79.70
5683;DHT22;2864;49.220;8.654;2023-07-31T14:20:53;23.80;80.90
5683;DHT22;2864;49.220;8.654;2023-07-31T14:23:18;23.90;81.90
5683;DHT22;2864;49.220;8.654;2023-07-31T14:25:45;23.60;81.80
5683;DHT22;2864;49.220;8.654;2023-07-31T14:28:11;23.60;82.20
5683;DHT22;2864;49.220;8.654;2023-07-31T14:30:36;23.50;82.30
5683;DHT22;2864;49.220;8.654;2023-07-31T14:33:02;23.40;82.30
5683;DHT22;2864;49.220;8.654;2023-07-31T14:35:28;23.30;82.70
5683;DHT22;2864;49.220;8.654;2023-07-31T14:37:53;23.90;84.20
5683;DHT22;2864;49.220;8.654;2023-07-31T14:40:19;23.20;83.40
5683;DHT22;2864;49.220;8.654;2023-07-31T14:42:44;23.30;83.80
5683;DHT22;2864;49.220;8.654;2023-07-31T14:45:10;23.30;83.20
5683;DHT22;2864;49.220;8.654;2023-07-31T14:47:36;23.60;83.10
5683;DHT22;2864;49.220;8.654;2023-07-31T14:50:02;23.70;82.40
5683;DHT22;2864;49.220;8.654;2023-07-31T14:52:28;23.80;82.80
5683;DHT22;2864;49.220;8.654;2023-07-31T14:54:54;23.80;82.30
5683;DHT22;2864;49.220;8.654;2023-07-31T14:57:21;24.10;82.50
5683;DHT22;2864;49.220;8.654;2023-07-31T15:03:09;25.10;79.80
5683;DHT22;2864;49.220;8.654;2023-07-31T15:05:34;26.20;79.10
5683;DHT22;2864;49.220;8.654;2023-07-31T15:08:00;26.60;77.20
5683;DHT22;2864;49.220;8.654;2023-07-31T15:10:26;27.10;77.70
5683;DHT22;2864;49.220;8.654;2023-07-31T15:16:13;28.40;74.20
5683;DHT22;2864;49.220;8.654;2023-07-31T15:18:38;26.30;76.20
5683;DHT22;2864;49.220;8.654;2023-07-31T15:21:04;25.90;76.00
5683;DHT22;2864;49.220;8.654;2023-07-31T15:23:32;26.50;76.60
5683;DHT22;2864;49.220;8.654;2023-07-31T15:25:57;27.20;75.40
5683;DHT22;2864;49.220;8.654;2023-07-31T15:28:23;27.00;74.90
5683;DHT22;2864;49.220;8.654;2023-07-31T15:30:48;26.50;75.60
5683;DHT22;2864;49.220;8.654;2023-07-31T15:33:14;26.50;76.00
5683;DHT22;2864;49.220;8.654;2023-07-31T15:35:40;26.70;76.30
5683;DHT22;2864;49.220;8.654;2023-07-31T15:38:06;26.30;75.70
5683;DHT22;2864;49.220;8.654;2023-07-31T15:40:31;26.10;76.10
5683;DHT22;2864;49.220;8.654;2023-07-31T15:42:57;26.00;76.50
5683;DHT22;2864;49.220;8.654;2023-07-31T15:45:22;25.70;77.40
5683;DHT22;2864;49.220;8.654;2023-07-31T15:47:48;26.30;78.00
5683;DHT22;2864;49.220;8.654;2023-07-31T15:50:13;25.50;77.80
5683;DHT22;2864;49.220;8.654;2023-07-31T15:52:39;25.00;78.30
5683;DHT22;2864;49.220;8.654;2023-07-31T15:55:05;24.50;78.80
5683;DHT22;2864;49.220;8.654;2023-07-31T15:57:31;24.20;79.30
5683;DHT22;2864;49.220;8.654;2023-07-31T15:59:56;24.00;79.10
5683;DHT22;2864;49.220;8.654;2023-07-31T16:02:22;23.80;79.50
5683;DHT22;2864;49.220;8.654;2023-07-31T16:04:47;23.80;79.40
5683;DHT22;2864;49.220;8.654;2023-07-31T16:07:13;23.60;79.80
5683;DHT22;2864;49.220;8.654;2023-07-31T16:09:38;23.70;79.80
5683;DHT22;2864;49.220;8.654;2023-07-31T16:12:04;23.90;79.60
5683;DHT22;2864;49.220;8.654;2023-07-31T16:14:30;23.90;79.90
5683;DHT22;2864;49.220;8.654;2023-07-31T16:16:56;23.80;80.20
5683;DHT22;2864;49.220;8.654;2023-07-31T16:19:21;24.60;81.90
5683;DHT22;2864;49.220;8.654;2023-07-31T16:21:47;23.60;81.20
5683;DHT22;2864;49.220;8.654;2023-07-31T16:24:13;23.30;81.40